Terminal Aerodrome Forecast
Issued by NWS

Home | Current Version | Previous Version | Text Only | Print | Product List | Glossary On
Versions: 1 2 3 4 5 6 7 8 9 10 11 12 13 14 15 16 17 18 19 20 21 22 23 24 25 26 27
000
FTUS41 KBUF 211100
TAFIAG
TAF
KIAG 211126Z 2112/2212 00000KT 6SM BR OVC050
     FM211300 VRB03KT P6SM BKN050 BKN120
     FM212000 25004KT P6SM BKN110 BKN250
     FM220200 18004KT P6SM BKN250=

USA.gov is the U.S. government's official web portal to all federal, state and local government web resources and services.